Verona Landing, California
Current Conditions -  °F | °C
As of 9:53 PM on Saturday 22 Nov 2014 (Local Time) from KSMF Reporting Station
Moderate Fog Moderate Fog  
Wind Chill: 47°   Ceiling: 100
Heat Index: 49°   Visibility: 0.25mi
Dew Point: 48°   Wind: 6mph
Humidity: 97%   Direction: 310°NW
Pressure: 30.23"   Gusts: NA
Location:  38.8689°N, 121.569°W
Report Text: KSMF 230553Z 31005KT 1/4SM R16R/1200FT FG VV001 09/09 A3023 RMK AO2 SLP236 T00940089 10156 20089 53018
Loading
Personal Weather Stations






























Interactive Weather Map New forecast layout! Learn more

10-Day Weather Forecast

Advertisements
Track Severe Weather on mobile